createdAt,value
2019-05-23T00:02:43.328Z,10.64
2019-05-23T00:05:37.256Z,10.60
2019-05-23T00:08:13.711Z,10.58
2019-05-23T00:10:45.660Z,10.55
2019-05-23T00:13:31.846Z,10.55
2019-05-23T00:16:01.113Z,10.54
2019-05-23T00:18:30.342Z,10.52
2019-05-23T00:20:58.826Z,10.50
2019-05-23T00:23:27.675Z,10.47
2019-05-23T00:25:56.873Z,10.44
2019-05-23T00:28:25.644Z,10.43
2019-05-23T00:30:58.912Z,10.46
2019-05-23T00:33:29.234Z,10.47
2019-05-23T00:35:59.125Z,10.44
2019-05-23T00:38:27.869Z,10.40
2019-05-23T00:40:56.422Z,10.39
2019-05-23T00:43:25.559Z,10.40
2019-05-23T00:45:54.733Z,10.42
2019-05-23T00:48:24.868Z,10.44
2019-05-23T00:50:54.285Z,10.38
2019-05-23T00:53:23.343Z,10.34
2019-05-23T00:55:52.043Z,10.33
2019-05-23T00:58:20.764Z,10.30
2019-05-23T01:00:51.622Z,10.32
2019-05-23T01:03:21.167Z,10.32
2019-05-23T01:05:49.788Z,10.35
2019-05-23T01:08:18.723Z,10.31
2019-05-23T01:10:48.018Z,10.27
2019-05-23T01:13:16.500Z,10.29
2019-05-23T01:15:45.693Z,10.30
2019-05-23T01:18:15.509Z,10.30
2019-05-23T01:21:08.839Z,10.32
2019-05-23T01:23:39.337Z,10.31
2019-05-23T01:26:08.324Z,10.30
2019-05-23T01:28:37.281Z,10.28
2019-05-23T01:31:08.079Z,10.25
2019-05-23T01:33:37.036Z,10.13
2019-05-23T01:36:05.627Z,10.18
2019-05-23T01:38:34.809Z,10.17
2019-05-23T01:41:03.920Z,10.16
2019-05-23T01:43:32.446Z,10.08
2019-05-23T01:46:00.913Z,10.09
2019-05-23T01:48:29.806Z,10.02
2019-05-23T01:50:58.671Z,9.97
2019-05-23T01:53:27.630Z,9.96
2019-05-23T01:55:56.109Z,9.94
2019-05-23T01:58:24.575Z,9.98
2019-05-23T02:00:53.604Z,9.96
2019-05-23T02:03:22.372Z,9.95
2019-05-23T02:05:51.111Z,9.90
2019-05-23T02:08:19.591Z,9.89
2019-05-23T02:10:48.679Z,9.92
2019-05-23T02:13:17.943Z,9.91
2019-05-23T02:15:46.898Z,9.85
2019-05-23T02:18:15.391Z,9.83
2019-05-23T02:20:44.530Z,9.86
2019-05-23T02:23:13.431Z,9.92
2019-05-23T02:25:42.547Z,9.94
2019-05-23T02:28:11.160Z,9.91
2019-05-23T02:30:40.220Z,9.85
2019-05-23T02:33:09.160Z,9.89
2019-05-23T02:35:38.196Z,9.91
2019-05-23T02:38:31.353Z,9.95
2019-05-23T02:41:05.388Z,9.96
2019-05-23T02:43:34.157Z,9.92
2019-05-23T02:46:05.800Z,9.89
2019-05-23T02:48:39.264Z,9.92
2019-05-23T02:51:12.749Z,9.96
2019-05-23T02:53:41.353Z,9.93
2019-05-23T02:56:11.615Z,9.87
2019-05-23T02:58:52.082Z,9.85
2019-05-23T03:01:29.948Z,9.79
2019-05-23T03:04:01.562Z,9.80
2019-05-23T03:06:30.361Z,9.84
2019-05-23T03:08:59.476Z,9.77
2019-05-23T03:11:38.906Z,9.72
2019-05-23T03:14:09.215Z,9.71
2019-05-23T03:16:39.440Z,9.71
2019-05-23T03:19:14.021Z,9.68
2019-05-23T03:21:44.534Z,9.66
2019-05-23T04:30:47.325Z,9.88
2019-05-23T04:33:15.840Z,9.92
2019-05-23T04:35:44.318Z,9.97
2019-05-23T04:38:12.801Z,10.00
2019-05-23T04:40:41.612Z,10.00
2019-05-23T04:43:10.099Z,10.02
2019-05-23T04:45:39.877Z,10.03
2019-05-23T04:48:08.746Z,10.08
2019-05-23T04:50:37.228Z,10.11
2019-05-23T04:53:06.546Z,10.15
2019-05-23T04:55:36.296Z,10.18
2019-05-23T04:58:05.283Z,10.25
2019-05-23T05:00:34.160Z,10.31
2019-05-23T05:03:02.644Z,10.32
2019-05-23T05:05:31.392Z,10.40
2019-05-23T05:07:59.831Z,10.42
2019-05-23T05:10:28.998Z,10.45
2019-05-23T05:12:57.464Z,10.51
2019-05-23T05:15:26.162Z,10.54
2019-05-23T05:17:54.650Z,10.51
2019-05-23T05:20:23.286Z,10.52
2019-05-23T05:22:52.317Z,10.52
2019-05-23T05:25:21.294Z,10.58
2019-05-23T05:27:50.003Z,10.61
2019-05-23T05:30:18.744Z,10.65
2019-05-23T05:32:47.880Z,10.54
2019-05-23T05:35:16.554Z,10.79
2019-05-23T05:37:45.008Z,10.79
2019-05-23T05:40:14.502Z,10.84
2019-05-23T05:42:43.977Z,10.88
2019-05-23T05:45:12.947Z,10.90
2019-05-23T05:47:41.852Z,10.88
2019-05-23T05:50:10.791Z,10.95
2019-05-23T05:52:40.127Z,11.03
2019-05-23T05:55:08.815Z,11.06
2019-05-23T05:57:40.758Z,11.13
2019-05-23T06:00:13.062Z,11.21
2019-05-23T06:02:42.611Z,11.25
2019-05-23T06:05:14.967Z,11.30
2019-05-23T06:07:43.483Z,11.35
2019-05-23T06:10:16.493Z,11.42
2019-05-23T06:12:45.273Z,11.46
2019-05-23T06:15:14.063Z,11.56
2019-05-23T06:17:42.727Z,11.64
2019-05-23T06:20:11.572Z,11.69
2019-05-23T06:22:40.574Z,11.71
2019-05-23T06:25:10.547Z,11.73
2019-05-23T06:27:40.201Z,11.81
2019-05-23T06:30:11.412Z,11.89
2019-05-23T06:32:40.146Z,11.94
2019-05-23T06:35:08.725Z,12.00
2019-05-23T06:37:37.482Z,12.04
2019-05-23T06:40:06.505Z,12.10
2019-05-23T06:42:35.263Z,12.16
2019-05-23T06:45:05.866Z,12.21
2019-05-23T06:47:34.407Z,12.29
2019-05-23T06:50:02.901Z,12.36
2019-05-23T06:52:31.385Z,12.42
2019-05-23T06:55:00.017Z,12.47
2019-05-23T06:57:28.634Z,12.57
2019-05-23T06:59:57.129Z,12.66
2019-05-23T07:02:25.705Z,12.68
2019-05-23T07:04:54.181Z,12.74
2019-05-23T07:07:23.473Z,12.82
2019-05-23T07:09:52.016Z,12.85
2019-05-23T07:12:20.825Z,12.91
2019-05-23T07:14:49.320Z,12.92
2019-05-23T07:17:19.503Z,12.96
2019-05-23T07:19:47.954Z,13.02
2019-05-23T07:22:18.894Z,13.11
2019-05-23T07:24:57.582Z,13.19
2019-05-23T07:27:17.304Z,13.29
2019-05-23T07:29:46.013Z,13.37
2019-05-23T07:32:14.977Z,13.42
2019-05-23T07:34:43.458Z,13.47
2019-05-23T07:37:11.929Z,13.50
2019-05-23T07:39:40.721Z,13.50
2019-05-23T07:42:11.027Z,13.57
2019-05-23T07:44:48.199Z,13.63
2019-05-23T07:47:13.143Z,13.71
2019-05-23T07:49:41.951Z,13.76
2019-05-23T07:52:10.417Z,13.80
2019-05-23T07:54:48.088Z,13.84
2019-05-23T07:57:17.205Z,13.70
2019-05-23T07:59:46.164Z,13.89
2019-05-23T08:02:25.982Z,13.92
2019-05-23T08:04:55.013Z,13.97
2019-05-23T08:07:23.588Z,13.97
2019-05-23T08:09:52.167Z,14.03
2019-05-23T08:12:20.721Z,14.10
2019-05-23T08:14:49.179Z,14.13
2019-05-23T08:17:18.044Z,14.15
2019-05-23T08:19:49.505Z,14.20
2019-05-23T08:22:16.713Z,14.28
2019-05-23T08:24:45.537Z,14.30
2019-05-23T08:27:14.348Z,14.37
2019-05-23T08:29:45.186Z,14.44
2019-05-23T08:32:13.772Z,14.45
2019-05-23T08:34:43.008Z,14.47
2019-05-23T08:37:12.390Z,14.47
2019-05-23T08:39:41.597Z,14.48
2019-05-23T08:42:10.512Z,14.55
2019-05-23T08:44:38.989Z,14.52
2019-05-23T08:47:09.577Z,14.52
2019-05-23T08:49:38.170Z,14.60
2019-05-23T08:52:06.670Z,14.68
2019-05-23T08:54:35.539Z,14.70
2019-05-23T08:57:05.414Z,14.73
2019-05-23T08:59:33.980Z,14.75
2019-05-23T09:02:03.066Z,14.79
2019-05-23T09:04:31.564Z,14.84
2019-05-23T09:07:00.428Z,14.87
2019-05-23T09:09:30.380Z,14.91
2019-05-23T09:11:59.144Z,14.98
2019-05-23T09:14:28.111Z,15.03
2019-05-23T09:16:56.605Z,15.10
2019-05-23T09:19:25.086Z,15.08
2019-05-23T09:21:57.866Z,15.05
2019-05-23T09:24:23.984Z,15.10
2019-05-23T09:26:52.740Z,15.17
2019-05-23T09:29:21.562Z,15.18
2019-05-23T09:31:50.260Z,15.21
2019-05-23T09:34:18.755Z,15.27
2019-05-23T09:36:47.416Z,15.31
2019-05-23T09:39:17.531Z,15.35
2019-05-23T09:41:46.768Z,15.42
2019-05-23T09:44:15.251Z,15.44
2019-05-23T09:46:43.782Z,15.44
2019-05-23T09:49:12.290Z,15.59
2019-05-23T09:51:40.771Z,15.72
2019-05-23T09:54:09.249Z,15.75
2019-05-23T09:56:38.498Z,15.78
2019-05-23T09:59:07.229Z,15.82
2019-05-23T10:01:35.713Z,15.84
2019-05-23T10:04:04.182Z,15.84
2019-05-23T10:06:32.646Z,15.81
2019-05-23T10:09:01.122Z,15.89
2019-05-23T10:11:29.617Z,15.91
2019-05-23T10:13:58.423Z,15.94
2019-05-23T10:16:26.899Z,15.97
2019-05-23T10:18:55.389Z,16.03
2019-05-23T10:21:24.244Z,16.12
2019-05-23T10:23:52.955Z,16.22
2019-05-23T10:26:21.462Z,16.20
2019-05-23T10:28:49.933Z,16.30
2019-05-23T10:31:18.739Z,16.32
2019-05-23T10:33:47.252Z,16.28
2019-05-23T10:36:15.758Z,16.30
2019-05-23T10:38:44.228Z,16.28
2019-05-23T10:41:12.836Z,16.32
2019-05-23T10:43:41.658Z,16.34
2019-05-23T10:46:10.257Z,16.45
2019-05-23T10:48:39.712Z,16.49
2019-05-23T10:51:08.279Z,16.53
2019-05-23T10:53:36.793Z,16.59
2019-05-23T10:56:05.240Z,16.60
2019-05-23T10:58:33.944Z,16.60
2019-05-23T11:01:02.908Z,16.66
2019-05-23T11:03:31.705Z,16.78
2019-05-23T11:06:14.704Z,16.90
2019-05-23T11:08:32.319Z,16.92
2019-05-23T11:11:01.056Z,16.99
2019-05-23T11:13:29.654Z,17.03
2019-05-23T11:15:58.131Z,17.00
2019-05-23T11:18:26.613Z,17.01
2019-05-23T11:20:55.159Z,17.05
2019-05-23T11:23:30.613Z,17.10
2019-05-23T11:26:01.404Z,17.20
2019-05-23T11:28:31.028Z,17.27
2019-05-23T11:31:00.998Z,17.28
2019-05-23T11:33:29.521Z,17.25
2019-05-23T11:35:58.089Z,17.28
2019-05-23T11:38:27.485Z,17.40
2019-05-23T11:40:55.972Z,17.45
2019-05-23T11:43:24.454Z,17.49
2019-05-23T11:45:59.660Z,17.56
2019-05-23T11:48:28.455Z,17.67
2019-05-23T11:50:56.936Z,17.81
2019-05-23T11:53:25.676Z,17.91
2019-05-23T11:55:54.794Z,18.01
2019-05-23T11:58:23.450Z,18.05
2019-05-23T12:01:21.301Z,18.08
2019-05-23T12:03:51.866Z,18.08
2019-05-23T12:06:20.446Z,18.16
2019-05-23T12:08:48.977Z,18.14
2019-05-23T12:11:17.975Z,18.41
2019-05-23T12:13:46.488Z,18.48
2019-05-23T12:16:14.966Z,18.57
2019-05-23T12:18:43.448Z,18.64
2019-05-23T12:21:11.939Z,18.58
2019-05-23T12:23:40.403Z,18.73
2019-05-23T12:26:08.886Z,18.73
2019-05-23T12:28:37.694Z,18.61
2019-05-23T12:31:07.773Z,18.37
2019-05-23T12:33:36.247Z,18.48
2019-05-23T12:36:05.409Z,18.66
2019-05-23T12:38:33.888Z,18.85
2019-05-23T12:41:04.590Z,18.99
2019-05-23T12:43:33.058Z,19.09
2019-05-23T12:46:01.877Z,19.22
2019-05-23T12:48:48.782Z,19.31
2019-05-23T12:51:19.673Z,19.27
2019-05-23T12:53:48.384Z,19.31
2019-05-23T12:56:16.896Z,19.33
2019-05-23T12:58:46.361Z,19.41
2019-05-23T13:01:16.250Z,19.52
2019-05-23T13:03:45.136Z,19.63
2019-05-23T13:06:13.655Z,19.72
2019-05-23T13:08:42.220Z,19.73
2019-05-23T13:11:10.691Z,19.78
2019-05-23T13:13:39.180Z,19.84
2019-05-23T13:16:07.674Z,19.88
2019-05-23T13:18:36.169Z,19.78
2019-05-23T13:21:04.910Z,19.73
2019-05-23T13:23:34.128Z,19.81
2019-05-23T13:26:02.599Z,19.94
2019-05-23T13:28:31.154Z,20.00
2019-05-23T13:30:59.655Z,20.00
2019-05-23T13:33:28.355Z,20.14
2019-05-23T13:35:57.142Z,20.28
2019-05-23T13:38:26.161Z,20.35
2019-05-23T13:40:54.641Z,20.30
2019-05-23T13:43:23.487Z,20.13
2019-05-23T13:45:52.046Z,19.90
2019-05-23T13:48:20.557Z,19.68
2019-05-23T13:50:49.048Z,19.57
2019-05-23T13:53:17.529Z,19.49
2019-05-23T13:55:46.109Z,19.40
2019-05-23T13:58:15.281Z,19.35
2019-05-23T14:00:44.574Z,19.49
2019-05-23T14:03:13.760Z,19.57
2019-05-23T14:05:42.274Z,19.63
2019-05-23T14:08:13.077Z,19.55
2019-05-23T14:10:41.056Z,19.45
2019-05-23T14:13:09.670Z,19.44
2019-05-23T14:15:41.220Z,19.37
2019-05-23T14:18:09.972Z,19.44
2019-05-23T14:20:38.730Z,19.65
2019-05-23T14:23:16.071Z,19.75
2019-05-23T14:25:44.939Z,19.71
2019-05-23T14:28:13.623Z,19.69
2019-05-23T14:31:02.064Z,19.64
2019-05-23T14:33:55.469Z,19.62
2019-05-23T14:36:33.090Z,19.66
2019-05-23T14:39:01.567Z,19.98
2019-05-23T14:41:45.443Z,20.44
2019-05-23T14:44:09.700Z,20.89
2019-05-23T14:46:45.021Z,21.05
2019-05-23T14:49:21.210Z,20.93
2019-05-23T14:52:05.315Z,20.69
2019-05-23T14:54:42.793Z,20.79
2019-05-23T14:57:11.521Z,20.65
2019-05-23T14:59:40.432Z,20.50
2019-05-23T15:02:14.838Z,20.56
2019-05-23T15:04:43.325Z,20.96
2019-05-23T15:07:11.799Z,21.33
2019-05-23T15:09:40.531Z,21.79
2019-05-23T15:12:09.031Z,21.91
2019-05-23T15:14:37.526Z,21.87
2019-05-23T15:17:06.413Z,21.85
2019-05-23T15:19:44.074Z,21.87
2019-05-23T15:22:05.088Z,21.77
2019-05-23T15:24:33.891Z,21.36
2019-05-23T15:27:02.384Z,21.25
2019-05-23T15:29:30.905Z,21.03
2019-05-23T15:32:02.812Z,21.04
2019-05-23T15:34:30.055Z,20.99
2019-05-23T15:36:58.533Z,21.00
2019-05-23T15:39:27.342Z,20.93
2019-05-23T15:41:55.828Z,21.03
2019-05-23T15:44:28.555Z,21.27
2019-05-23T15:46:54.528Z,21.45
2019-05-23T15:49:23.008Z,21.51
2019-05-23T15:52:04.419Z,21.66
2019-05-23T15:57:22.960Z,21.85
2019-05-23T16:00:16.759Z,21.94
2019-05-23T16:02:53.238Z,22.00
2019-05-23T16:05:22.191Z,21.85
2019-05-23T16:07:50.831Z,21.94
2019-05-23T16:10:20.448Z,22.18
2019-05-23T16:12:49.016Z,22.44
2019-05-23T16:15:18.519Z,22.53
2019-05-23T16:17:47.296Z,22.50
2019-05-23T16:20:15.787Z,22.60
2019-05-23T16:22:44.555Z,22.61
2019-05-23T16:25:13.038Z,22.59
2019-05-23T16:27:41.771Z,22.65
2019-05-23T16:30:10.272Z,22.63
2019-05-23T16:32:38.750Z,22.57
2019-05-23T16:35:07.341Z,22.59
2019-05-23T16:37:35.826Z,22.64
2019-05-23T16:40:04.637Z,22.68
2019-05-23T16:42:33.352Z,22.61
2019-05-23T16:45:01.917Z,22.48
2019-05-23T16:47:31.002Z,22.36
2019-05-23T16:49:59.497Z,22.07
2019-05-23T16:52:28.010Z,21.87
2019-05-23T16:54:57.762Z,21.93
2019-05-23T16:57:35.991Z,22.05
2019-05-23T17:00:24.229Z,22.07
2019-05-23T17:03:10.617Z,22.12
2019-05-23T17:05:48.061Z,22.24
2019-05-23T17:08:38.426Z,22.32
2019-05-23T17:11:17.216Z,22.35
2019-05-23T17:13:49.515Z,22.49
2019-05-23T17:16:40.174Z,22.49
2019-05-23T17:19:30.472Z,22.36
2019-05-23T17:22:07.337Z,22.15
2019-05-23T17:24:57.903Z,22.10
2019-05-23T17:28:03.500Z,22.12
2019-05-23T17:30:38.103Z,22.02
2019-05-23T17:33:07.653Z,22.01
2019-05-23T17:35:36.528Z,21.87
2019-05-23T17:38:05.024Z,21.78
2019-05-23T17:40:34.247Z,21.73
2019-05-23T17:43:02.770Z,21.71
2019-05-23T17:45:31.528Z,21.70
2019-05-23T17:48:00.709Z,21.68
2019-05-23T17:50:29.361Z,21.56
2019-05-23T17:52:57.880Z,21.46
2019-05-23T17:55:28.039Z,21.34
2019-05-23T17:57:57.008Z,21.23
2019-05-23T18:00:30.066Z,21.08
2019-05-23T18:02:58.880Z,20.91
2019-05-23T18:05:27.667Z,20.77
2019-05-23T18:07:56.229Z,20.66
2019-05-23T18:10:43.330Z,20.55
2019-05-23T18:12:55.919Z,20.45
2019-05-23T18:15:25.459Z,20.36
2019-05-23T18:17:58.640Z,20.31
2019-05-23T18:20:26.490Z,20.23
2019-05-23T18:22:55.036Z,20.14
2019-05-23T18:25:23.796Z,20.06
2019-05-23T18:27:52.342Z,20.00
2019-05-23T18:30:27.184Z,19.94
2019-05-23T18:32:56.055Z,19.88
2019-05-23T18:35:25.279Z,19.83
2019-05-23T18:37:53.749Z,19.77
2019-05-23T18:40:22.247Z,19.73
2019-05-23T18:42:50.822Z,19.70
2019-05-23T18:45:20.598Z,19.65
2019-05-23T18:47:49.331Z,19.60
2019-05-23T18:50:18.785Z,19.55
2019-05-23T18:52:47.304Z,19.50
2019-05-23T18:55:16.269Z,19.45
2019-05-23T18:57:45.085Z,19.42
2019-05-23T19:00:14.909Z,19.37
2019-05-23T19:02:43.392Z,19.31
2019-05-23T19:05:13.413Z,19.27
2019-05-23T19:07:41.884Z,19.19
2019-05-23T19:10:11.425Z,19.12
2019-05-23T19:12:41.517Z,19.07
2019-05-23T19:15:10.091Z,18.98
2019-05-23T19:17:38.559Z,18.91
2019-05-23T19:20:07.403Z,18.83
2019-05-23T19:22:35.944Z,18.75
2019-05-23T19:25:05.188Z,18.64
2019-05-23T19:27:33.676Z,18.55
2019-05-23T19:30:02.245Z,18.44
2019-05-23T19:32:30.987Z,18.37
2019-05-23T19:34:59.455Z,18.30
2019-05-23T19:37:28.190Z,18.24
2019-05-23T19:39:56.893Z,18.23
2019-05-23T19:42:25.547Z,18.23
2019-05-23T19:44:54.034Z,18.21
2019-05-23T19:47:22.495Z,18.16
2019-05-23T19:49:50.994Z,18.08
2019-05-23T19:52:20.083Z,18.02
2019-05-23T19:54:48.825Z,17.90
2019-05-23T19:57:17.372Z,17.78
2019-05-23T19:59:45.855Z,17.73
2019-05-23T20:02:42.456Z,17.67
2019-05-23T20:05:16.779Z,17.59
2019-05-23T20:07:45.338Z,17.48
2019-05-23T20:10:14.197Z,17.44
2019-05-23T20:12:43.072Z,17.40
2019-05-23T20:15:11.587Z,17.31
2019-05-23T20:17:40.066Z,17.29
2019-05-23T20:20:08.649Z,17.21
2019-05-23T20:22:37.131Z,17.19
2019-05-23T20:25:05.740Z,17.16
2019-05-23T20:27:34.859Z,17.12
2019-05-23T20:30:03.431Z,17.05
2019-05-23T20:32:32.169Z,17.03
2019-05-23T20:35:00.921Z,16.96
2019-05-23T20:37:35.138Z,16.91
2019-05-23T20:40:02.139Z,16.89
2019-05-23T20:42:30.885Z,16.86
2019-05-23T20:44:59.363Z,16.85
2019-05-23T20:47:28.882Z,16.81
2019-05-23T20:49:57.337Z,16.79
2019-05-23T20:52:25.830Z,16.76
2019-05-23T20:54:54.318Z,16.74
2019-05-23T20:57:22.790Z,16.69
2019-05-23T20:59:51.293Z,16.62
2019-05-23T21:02:20.024Z,16.57
2019-05-23T21:04:48.537Z,16.54
2019-05-23T21:07:17.054Z,16.49
2019-05-23T21:09:45.569Z,16.43
2019-05-23T21:12:28.725Z,16.41
2019-05-23T21:14:44.341Z,16.40
2019-05-23T21:17:12.820Z,16.36
2019-05-23T21:19:41.317Z,16.29
2019-05-23T21:22:09.805Z,16.23
2019-05-23T21:24:38.260Z,16.18
2019-05-23T21:27:06.757Z,16.16
2019-05-23T21:29:35.242Z,16.13
2019-05-23T21:32:03.716Z,16.12
2019-05-23T21:34:32.183Z,16.11
2019-05-23T21:37:00.701Z,16.11
2019-05-23T21:39:29.240Z,16.09
2019-05-23T21:41:58.030Z,16.03
2019-05-23T21:44:26.513Z,16.03
2019-05-23T21:46:55.024Z,16.00
2019-05-23T21:49:23.518Z,16.01
2019-05-23T21:51:52.098Z,15.99
2019-05-23T21:54:20.592Z,15.95
2019-05-23T21:56:49.065Z,15.94
2019-05-23T21:59:17.537Z,15.94
2019-05-23T22:01:54.116Z,15.91
2019-05-23T22:04:38.864Z,15.82
2019-05-23T22:07:08.391Z,15.77
2019-05-23T22:09:37.136Z,15.78
2019-05-23T22:12:08.429Z,15.81
2019-05-23T22:14:37.710Z,15.90
2019-05-23T22:17:06.261Z,15.96
2019-05-23T22:19:35.303Z,15.89
2019-05-23T22:22:04.065Z,15.80
2019-05-23T22:24:32.577Z,15.80
2019-05-23T22:27:01.064Z,15.85
2019-05-23T22:29:29.580Z,15.76
2019-05-23T22:31:58.411Z,15.70
2019-05-23T22:34:44.100Z,15.64
2019-05-23T22:37:18.061Z,15.67
2019-05-23T22:39:46.562Z,15.60
2019-05-23T22:42:15.662Z,15.52
2019-05-23T22:44:44.191Z,15.48
2019-05-23T22:47:12.632Z,15.47
2019-05-23T22:49:41.125Z,15.42
2019-05-23T22:52:09.604Z,15.33
2019-05-23T22:54:38.481Z,15.30
2019-05-23T22:57:06.950Z,15.23
2019-05-23T22:59:35.544Z,15.21
2019-05-23T23:02:05.676Z,15.20
2019-05-23T23:04:34.173Z,15.19
2019-05-23T23:07:02.644Z,15.17
2019-05-23T23:09:31.142Z,15.13
2019-05-23T23:11:59.917Z,15.13
2019-05-23T23:14:28.530Z,15.01
2019-05-23T23:16:57.017Z,14.92
2019-05-23T23:19:25.820Z,14.93
2019-05-23T23:21:54.324Z,14.93
2019-05-23T23:24:22.799Z,14.95
2019-05-23T23:26:51.381Z,14.88
2019-05-23T23:29:19.858Z,14.88
2019-05-23T23:31:48.323Z,14.96
2019-05-23T23:34:16.786Z,14.94
2019-05-23T23:36:45.249Z,14.83
2019-05-23T23:39:13.732Z,14.79
2019-05-23T23:41:42.569Z,14.80
2019-05-23T23:44:11.413Z,14.82
2019-05-23T23:46:57.653Z,14.83
2019-05-23T23:49:44.139Z,14.80
2019-05-23T23:52:30.418Z,14.84
2019-05-23T23:55:16.862Z,14.84
2019-05-23T23:57:59.802Z,14.84
